SVA1420 OEJN-OEMA
Flight info
| Callsign | SVA1420 |
|---|---|
| Flight time | 0h 36m |
| Altitude | 25000 |
| Route | DATAP2W/34C DATAP A424 RULEB/N0379F240 A424 DEGVU |
| Aircraft | A320/M-SDE3FGHIRWY/LB1 |
Departure
| Time | 2026-04-30 21:24 |
|---|---|
| Airport | King Abdulaziz International Airport (OEJN) |
Arrival
| Time | 2026-04-30 22:00 |
|---|---|
| Airport | Prince Mohammad Bin Abdulaziz Airport (OEMA) |
| Time | Latitude | Longitude | Altitude | Speed | Heading |
|---|---|---|---|---|---|
| 2026-04-30 20:59 | 21.66333 | 39.17703 | 31 ft | 0 kts | 190° |
| 2026-04-30 21:16 | 21.66334 | 39.17704 | 31 ft | 2 kts | 190° |
| 2026-04-30 21:16 | 21.66360 | 39.17708 | 31 ft | 4 kts | 187° |
| 2026-04-30 21:16 | 21.66387 | 39.17711 | 30 ft | 4 kts | 181° |
| 2026-04-30 21:16 | 21.66414 | 39.17710 | 30 ft | 4 kts | 165° |
| 2026-04-30 21:17 | 21.66433 | 39.17698 | 30 ft | 3 kts | 107° |
| 2026-04-30 21:17 | 21.66435 | 39.17695 | 30 ft | 0 kts | 100° |
| 2026-04-30 21:20 | 21.66431 | 39.17736 | 30 ft | 8 kts | 83° |
| 2026-04-30 21:20 | 21.66465 | 39.17775 | 30 ft | 9 kts | 19° |
| 2026-04-30 21:20 | 21.66532 | 39.17761 | 30 ft | 11 kts | 351° |
| 2026-04-30 21:20 | 21.66588 | 39.17809 | 30 ft | 11 kts | 68° |
| 2026-04-30 21:21 | 21.66612 | 39.17879 | 32 ft | 9 kts | 69° |
| 2026-04-30 21:21 | 21.66631 | 39.17933 | 31 ft | 7 kts | 69° |
| 2026-04-30 21:21 | 21.66658 | 39.18010 | 30 ft | 4 kts | 69° |
| 2026-04-30 21:22 | 21.66669 | 39.18029 | 32 ft | 5 kts | 39° |
| 2026-04-30 21:22 | 21.66713 | 39.18026 | 32 ft | 0 kts | 338° |
| 2026-04-30 21:23 | 21.66756 | 39.18008 | 30 ft | 25 kts | 339° |
| 2026-04-30 21:23 | 21.67161 | 39.17849 | 31 ft | 96 kts | 340° |
| 2026-04-30 21:23 | 21.69074 | 39.17098 | 307 ft | 170 kts | 340° |
| 2026-04-30 21:24 | 21.70138 | 39.16679 | 1191 ft | 158 kts | 341° |
| 2026-04-30 21:24 | 21.71158 | 39.16318 | 1949 ft | 154 kts | 347° |
| 2026-04-30 21:24 | 21.72268 | 39.16101 | 2334 ft | 173 kts | 351° |
| 2026-04-30 21:24 | 21.73540 | 39.15932 | 2613 ft | 196 kts | 360° |
| 2026-04-30 21:25 | 21.76031 | 39.17743 | 3211 ft | 250 kts | 43° |
| 2026-04-30 21:25 | 21.77355 | 39.19061 | 3715 ft | 266 kts | 36° |
| 2026-04-30 21:25 | 21.78888 | 39.20234 | 4473 ft | 274 kts | 32° |
| 2026-04-30 21:26 | 21.82197 | 39.22451 | 5802 ft | 287 kts | 30° |
| 2026-04-30 21:26 | 21.83903 | 39.23582 | 5969 ft | 288 kts | 30° |
| 2026-04-30 21:27 | 21.87288 | 39.25888 | 6002 ft | 288 kts | 31° |
| 2026-04-30 21:27 | 21.88969 | 39.27060 | 6002 ft | 288 kts | 31° |
| 2026-04-30 21:27 | 21.90646 | 39.28238 | 6003 ft | 288 kts | 32° |
| 2026-04-30 21:28 | 21.94005 | 39.30608 | 6018 ft | 289 kts | 32° |
| 2026-04-30 21:28 | 21.95728 | 39.31781 | 6577 ft | 294 kts | 30° |
| 2026-04-30 21:28 | 21.99222 | 39.34081 | 8253 ft | 297 kts | 30° |
| 2026-04-30 21:29 | 22.00994 | 39.35242 | 9055 ft | 299 kts | 30° |
| 2026-04-30 21:29 | 22.06554 | 39.38894 | 10518 ft | 338 kts | 30° |
| 2026-04-30 21:30 | 22.10684 | 39.41624 | 11629 ft | 354 kts | 30° |
| 2026-04-30 21:31 | 22.17084 | 39.45870 | 13000 ft | 367 kts | 30° |
| 2026-04-30 21:31 | 22.21432 | 39.48763 | 13035 ft | 366 kts | 30° |
| 2026-04-30 21:32 | 22.25803 | 39.51670 | 13806 ft | 372 kts | 29° |
| 2026-04-30 21:32 | 22.28023 | 39.53142 | 14381 ft | 376 kts | 29° |
| 2026-04-30 21:32 | 22.30358 | 39.54394 | 14966 ft | 376 kts | 17° |
| 2026-04-30 21:32 | 22.32880 | 39.55098 | 15545 ft | 374 kts | 5° |
| 2026-04-30 21:33 | 22.35473 | 39.55220 | 16148 ft | 372 kts | 353° |
| 2026-04-30 21:33 | 22.40409 | 39.54245 | 17288 ft | 373 kts | 344° |
| 2026-04-30 21:33 | 22.42963 | 39.53669 | 17873 ft | 377 kts | 344° |
| 2026-04-30 21:34 | 22.45543 | 39.53094 | 18428 ft | 379 kts | 344° |
| 2026-04-30 21:34 | 22.50734 | 39.51947 | 19500 ft | 382 kts | 344° |
| 2026-04-30 21:34 | 22.53339 | 39.51372 | 20053 ft | 383 kts | 344° |
| 2026-04-30 21:35 | 22.55953 | 39.50793 | 20588 ft | 384 kts | 344° |
| 2026-04-30 21:35 | 22.58576 | 39.50212 | 21149 ft | 385 kts | 344° |
| 2026-04-30 21:35 | 22.61208 | 39.49630 | 21674 ft | 387 kts | 344° |
| 2026-04-30 21:35 | 22.63884 | 39.49191 | 22202 ft | 393 kts | 352° |
| 2026-04-30 21:36 | 22.66631 | 39.49290 | 22730 ft | 400 kts | 3° |
| 2026-04-30 21:36 | 22.69370 | 39.49996 | 23241 ft | 409 kts | 14° |
| 2026-04-30 21:37 | 22.77489 | 39.53172 | 24471 ft | 417 kts | 14° |
| 2026-04-30 21:37 | 22.80230 | 39.54230 | 24827 ft | 420 kts | 14° |
| 2026-04-30 21:37 | 22.82986 | 39.55291 | 24940 ft | 419 kts | 14° |
| 2026-04-30 21:37 | 22.85676 | 39.56334 | 24984 ft | 405 kts | 13° |
| 2026-04-30 21:38 | 22.88309 | 39.57359 | 24976 ft | 400 kts | 13° |
| 2026-04-30 21:38 | 22.90922 | 39.58373 | 24992 ft | 399 kts | 13° |
| 2026-04-30 21:38 | 22.93535 | 39.59381 | 24989 ft | 399 kts | 13° |
| 2026-04-30 21:38 | 22.96145 | 39.60389 | 24991 ft | 399 kts | 13° |
| 2026-04-30 21:39 | 22.98760 | 39.61403 | 24993 ft | 398 kts | 13° |
| 2026-04-30 21:39 | 23.01388 | 39.62278 | 24993 ft | 393 kts | 5° |
| 2026-04-30 21:39 | 23.04072 | 39.62659 | 24992 ft | 385 kts | 356° |
| 2026-04-30 21:39 | 23.06750 | 39.62790 | 24992 ft | 385 kts | 356° |
| 2026-04-30 21:40 | 23.09435 | 39.62926 | 25006 ft | 385 kts | 356° |
| 2026-04-30 21:40 | 23.12115 | 39.63065 | 25006 ft | 385 kts | 356° |
| 2026-04-30 21:40 | 23.14790 | 39.63204 | 25001 ft | 385 kts | 356° |
| 2026-04-30 21:40 | 23.17464 | 39.63345 | 25004 ft | 385 kts | 356° |
| 2026-04-30 21:41 | 23.20129 | 39.63483 | 25007 ft | 384 kts | 356° |
| 2026-04-30 21:41 | 23.22790 | 39.63623 | 24649 ft | 381 kts | 356° |
| 2026-04-30 21:41 | 23.25405 | 39.63759 | 24155 ft | 380 kts | 356° |
| 2026-04-30 21:41 | 23.28032 | 39.63896 | 23674 ft | 377 kts | 356° |
| 2026-04-30 21:42 | 23.30648 | 39.64034 | 23134 ft | 375 kts | 356° |
| 2026-04-30 21:42 | 23.33247 | 39.64170 | 22686 ft | 373 kts | 356° |
| 2026-04-30 21:42 | 23.35830 | 39.64306 | 22201 ft | 371 kts | 356° |
| 2026-04-30 21:42 | 23.38401 | 39.64440 | 21737 ft | 368 kts | 356° |
| 2026-04-30 21:43 | 23.40952 | 39.64574 | 21278 ft | 366 kts | 356° |
| 2026-04-30 21:43 | 23.43490 | 39.64708 | 20831 ft | 364 kts | 356° |
| 2026-04-30 21:43 | 23.46015 | 39.64839 | 20384 ft | 363 kts | 356° |
| 2026-04-30 21:43 | 23.48524 | 39.64969 | 19936 ft | 362 kts | 357° |
| 2026-04-30 21:44 | 23.51036 | 39.65100 | 19493 ft | 361 kts | 357° |
| 2026-04-30 21:44 | 23.53551 | 39.65232 | 19047 ft | 361 kts | 358° |
| 2026-04-30 21:44 | 23.56057 | 39.65364 | 18611 ft | 361 kts | 358° |
| 2026-04-30 21:44 | 23.58559 | 39.65495 | 18165 ft | 361 kts | 358° |
| 2026-04-30 21:45 | 23.61067 | 39.65624 | 17701 ft | 360 kts | 358° |
| 2026-04-30 21:45 | 23.63562 | 39.65752 | 17283 ft | 357 kts | 358° |
| 2026-04-30 21:45 | 23.66036 | 39.65878 | 16864 ft | 355 kts | 358° |
| 2026-04-30 21:45 | 23.68495 | 39.66005 | 16461 ft | 353 kts | 358° |
| 2026-04-30 21:46 | 23.70943 | 39.66159 | 16048 ft | 353 kts | 2° |
| 2026-04-30 21:46 | 23.73361 | 39.66681 | 15603 ft | 356 kts | 9° |
| 2026-04-30 21:46 | 23.75773 | 39.67309 | 15147 ft | 357 kts | 10° |
| 2026-04-30 21:46 | 23.78186 | 39.67944 | 14720 ft | 356 kts | 10° |
| 2026-04-30 21:47 | 23.80586 | 39.68577 | 14281 ft | 356 kts | 11° |
| 2026-04-30 21:47 | 23.82980 | 39.69205 | 13942 ft | 349 kts | 11° |
| 2026-04-30 21:47 | 23.85333 | 39.69822 | 13248 ft | 345 kts | 11° |
| 2026-04-30 21:47 | 23.87624 | 39.70421 | 12803 ft | 333 kts | 11° |
| 2026-04-30 21:48 | 23.89840 | 39.71004 | 12371 ft | 323 kts | 12° |
| 2026-04-30 21:48 | 23.92003 | 39.71571 | 11946 ft | 318 kts | 12° |
| 2026-04-30 21:48 | 23.94148 | 39.72131 | 11532 ft | 315 kts | 12° |
| 2026-04-30 21:48 | 23.96271 | 39.72685 | 11120 ft | 313 kts | 13° |
| 2026-04-30 21:49 | 23.98380 | 39.73237 | 10703 ft | 310 kts | 13° |
| 2026-04-30 21:49 | 24.00471 | 39.73784 | 10297 ft | 310 kts | 14° |
| 2026-04-30 21:49 | 24.02571 | 39.74334 | 9903 ft | 311 kts | 14° |
| 2026-04-30 21:49 | 24.04659 | 39.74882 | 9537 ft | 309 kts | 14° |
| 2026-04-30 21:50 | 24.06747 | 39.75430 | 9163 ft | 307 kts | 14° |
| 2026-04-30 21:50 | 24.08822 | 39.75972 | 8746 ft | 306 kts | 14° |
| 2026-04-30 21:50 | 24.10882 | 39.76510 | 8452 ft | 302 kts | 14° |
| 2026-04-30 21:50 | 24.12904 | 39.77039 | 8122 ft | 294 kts | 14° |
| 2026-04-30 21:51 | 24.14822 | 39.77544 | 7971 ft | 273 kts | 14° |
| 2026-04-30 21:51 | 24.16603 | 39.78014 | 7851 ft | 255 kts | 14° |
| 2026-04-30 21:51 | 24.18309 | 39.78378 | 7738 ft | 247 kts | 5° |
| 2026-04-30 21:51 | 24.19995 | 39.78315 | 7485 ft | 245 kts | 350° |
| 2026-04-30 21:52 | 24.21686 | 39.77953 | 7209 ft | 245 kts | 348° |
| 2026-04-30 21:52 | 24.23360 | 39.77595 | 6918 ft | 245 kts | 349° |
| 2026-04-30 21:52 | 24.25022 | 39.77242 | 6615 ft | 241 kts | 348° |
| 2026-04-30 21:52 | 24.26617 | 39.76904 | 6369 ft | 227 kts | 349° |
| 2026-04-30 21:53 | 24.28130 | 39.76585 | 6089 ft | 215 kts | 347° |
| 2026-04-30 21:53 | 24.29565 | 39.76281 | 5998 ft | 211 kts | 348° |
| 2026-04-30 21:53 | 24.30946 | 39.75989 | 5999 ft | 210 kts | 348° |
| 2026-04-30 21:53 | 24.32276 | 39.75708 | 5996 ft | 187 kts | 347° |
| 2026-04-30 21:54 | 24.33517 | 39.75446 | 5918 ft | 174 kts | 347° |
| 2026-04-30 21:54 | 24.34675 | 39.75201 | 5754 ft | 170 kts | 348° |
| 2026-04-30 21:54 | 24.35827 | 39.74957 | 5554 ft | 168 kts | 347° |
| 2026-04-30 21:54 | 24.36971 | 39.74715 | 5341 ft | 165 kts | 347° |
| 2026-04-30 21:55 | 24.38087 | 39.74478 | 5146 ft | 162 kts | 347° |
| 2026-04-30 21:55 | 24.39182 | 39.74247 | 4955 ft | 155 kts | 346° |
| 2026-04-30 21:55 | 24.40218 | 39.74028 | 4746 ft | 148 kts | 346° |
| 2026-04-30 21:55 | 24.41221 | 39.73815 | 4552 ft | 145 kts | 346° |
| 2026-04-30 21:56 | 24.42206 | 39.73606 | 4359 ft | 144 kts | 346° |
| 2026-04-30 21:56 | 24.43188 | 39.73398 | 4182 ft | 143 kts | 346° |
| 2026-04-30 21:56 | 24.44170 | 39.73190 | 3992 ft | 145 kts | 346° |
| 2026-04-30 21:56 | 24.45161 | 39.72980 | 3820 ft | 146 kts | 346° |
| 2026-04-30 21:57 | 24.46156 | 39.72769 | 3624 ft | 145 kts | 345° |
| 2026-04-30 21:57 | 24.47150 | 39.72553 | 3422 ft | 147 kts | 346° |
| 2026-04-30 21:57 | 24.48151 | 39.72344 | 3238 ft | 146 kts | 348° |
| 2026-04-30 21:57 | 24.49155 | 39.72148 | 3020 ft | 148 kts | 348° |
| 2026-04-30 21:58 | 24.50168 | 39.71921 | 2856 ft | 150 kts | 346° |
| 2026-04-30 21:58 | 24.51203 | 39.71688 | 2599 ft | 152 kts | 348° |
| 2026-04-30 21:58 | 24.52243 | 39.71467 | 2426 ft | 153 kts | 348° |
| 2026-04-30 21:58 | 24.53286 | 39.71260 | 2223 ft | 152 kts | 347° |
| 2026-04-30 21:59 | 24.54286 | 39.71051 | 2127 ft | 148 kts | 346° |
| 2026-04-30 21:59 | 24.55193 | 39.70851 | 2110 ft | 115 kts | 349° |
| 2026-04-30 21:59 | 24.55848 | 39.70714 | 2111 ft | 76 kts | 349° |
| 2026-04-30 22:00 | 24.56266 | 39.70763 | 2112 ft | 18 kts | 50° |
| 2026-04-30 22:00 | 24.56211 | 39.70827 | 2109 ft | 13 kts | 173° |
| 2026-04-30 22:00 | 24.56080 | 39.70854 | 2108 ft | 21 kts | 168° |
| 2026-04-30 22:01 | 24.56004 | 39.70946 | 2106 ft | 17 kts | 82° |
| 2026-04-30 22:01 | 24.56017 | 39.71028 | 2106 ft | 9 kts | 80° |
| 2026-04-30 22:01 | 24.56009 | 39.71072 | 2106 ft | 4 kts | 173° |
| 2026-04-30 22:01 | 24.55976 | 39.71075 | 2105 ft | 9 kts | 175° |
| 2026-04-30 22:02 | 24.55909 | 39.71082 | 2106 ft | 10 kts | 175° |
| 2026-04-30 22:02 | 24.55834 | 39.71100 | 2105 ft | 12 kts | 163° |
| 2026-04-30 22:02 | 24.55748 | 39.71124 | 2105 ft | 14 kts | 167° |
| 2026-04-30 22:02 | 24.55684 | 39.71136 | 2105 ft | 15 kts | 171° |
| 2026-04-30 22:03 | 24.55541 | 39.71165 | 2105 ft | 17 kts | 171° |
| 2026-04-30 22:03 | 24.55459 | 39.71204 | 2105 ft | 9 kts | 95° |
| 2026-04-30 22:03 | 24.55461 | 39.71240 | 2105 ft | 0 kts | 83° |
| 2026-04-30 22:03 | 24.55461 | 39.71242 | 2105 ft | 2 kts | 82° |
| 2026-04-30 22:04 | 24.55464 | 39.71256 | 2105 ft | 0 kts | 76° |
| 2026-04-30 22:04 | 24.55466 | 39.71264 | 2105 ft | 4 kts | 77° |
| 2026-04-30 22:04 | 24.55469 | 39.71277 | 2105 ft | 0 kts | 78° |